MMCS/CJS METAR and TAF weather

Enter ICAO airport designator
Station Type Date Time Source
MMCS METAR 2019/04/19 02:40 UTC NOAA

MMCS 190240Z 00000KT 10SM SKC 23/M03 A3013 RMK SLP120 52004 939


Station Type Date Time Source
MMCS Decoded METAR 2019/04/19 02:40 UTC NOAA

Ciudad Juarez International , Mexico (MMCS) 31-38N 106-26W
Apr 18, 2019 - 10:40 PM EDT / 2019.04.19 0240 UTC
Wind: Calm:0
Visibility: 10 mile(s):0
Sky conditions: clear
Temperature: 73 F (23 C)
Dew Point: 26 F (-3 C)
Relative Humidity: 17%
Pressure (altimeter): 30.13 in. Hg (1020 hPa)
Pressure tendency: 0.01 inches (0.4 hPa) higher than three hours ago
ob: MMCS 190240Z 00000KT 10SM SKC 23/M03 A3013 RMK SLP120 52004 939
cycle: 2

Station Type Date Time Source
MMCS TAF 2019/04/19 06:06 UTC NOAA

TAF MMCS 190501Z 1906/2006 00000KT P6SM SKC
FM191800 13010KT P6SM SKC
FM200300 13005KT P6SM SKC

Example: see airport list